Impacts TAF Board INFO
FOR SITUATIONAL AWARENESS. NOT TO BE USED FOR FLIGHT PLANNING PURPOSES.
IDs:

KDCA - Washington/National, VA, US

Issued at 2330 UTC 21 Apr 2018
Updated at 0436 UTC 22 Apr 2018
Potential Impact None Slight Moderate High
Time0352Z 22/05Z 22/06Z 22/07Z 22/08Z 22/09Z 22/10Z 22/11Z 22/12Z 22/13Z 22/14Z 22/15Z 22/16Z 22/17Z>>
Type OBS PRVL PRVL PRVL PRVL PRVL PRVL PRVL PRVL PRVL PRVL PRVL PRVL PRVL
VIS 10 >6 >6 >6 >6 >6 >6 >6 >6 >6 >6 >6 >6 >6
CIG 150 250 250 250 250 250 250 250 250 70 70 70 70 60
Cover BKN BKN BKN BKN BKN BKN BKN BKN BKN BKN BKN BKN BKN BKN
FltCat VFR VFR VFR VFR VFR VFR VFR VFR VFR VFR VFR VFR VFR VFR
WX -- -- -- -- -- -- -- -- -- -- -- -- -- --
WDir 170 180 180 180 180 180 180 180 180 60 60 60 60 120
WSpd 3 6 6 6 6 6 6 6 6 4 4 4 4 5
WGst -- -- -- -- -- -- -- -- -- -- -- -- -- --

Raw TAF
KDCA 212330Z 2200/2306 18006KT P6SM SCT150 BKN250
  FM221300 06004KT P6SM BKN070 BKN150
  FM221700 12005KT P6SM BKN060 BKN150
  FM230100 14005KT P6SM SCT060


Raw METAR
KDCA 220352Z 17003KT 10SM BKN150 BKN250 12/02 A3039 RMK AO2 SLP290 T01170022
KDCA 220252Z 18005KT 10SM OVC150 12/02 A3039 RMK AO2 SLP290 T01220017 51012
KDCA 220152Z 20003KT 10SM OVC150 12/02 A3038 RMK AO2 SLP287 T01220017

METAR Board
Radar Display
Forecast Discussion

FOR SITUATIONAL AWARENESS. NOT TO BE USED FOR FLIGHT PLANNING PURPOSES.